Kezdőlap
METAR-TAF:

METAR-TAF

Repülőterek :

Baraboo Wisconsin Dells Airport

Baraboo-Wisconsin Dells, Wisconsin, Amerikai Egyesült Államok

földrajzi szélesség: 43-31-19N, földrajzi hosszúság: 089-46-15W, magasság: 298 m

Jelenlegi meteorológiai megfigyelések

A jelentés 16 perccel ezelõtt készült, 10:00 UTC
Dél-délkeleti szél 11 kt széllökések: 18 kt
Hőmérséklet 15°C
Páratartalom 100%
Légköri nyomás 997 hPa
Látótávolság: 16.1 km
Szórványos felhőzet 800 lábon
Borult 1400 lábon
enyhe esõ

METAR: KDLL 171000Z AUTO 15011G18KT 10SM -RA SCT008 OVC014 15/15 A2943 RMK AO2 LTG DSNT W THRU E T01540149

Idő: 05:16 (10:16 UTC)


TAF: hiányzik

Meteorológiai megfigyelések és előrejelzések több, mint 4000 repülőtéren (METAR és TAF jelentéseket).

A térképen piros és sárga pontok jelzik az elérhető meteorológiai állomásokat.

Mozgassa az egeret a pont fölött, hogy megjelenjen az állomás neve.

Azután kattintson az időjárási megfigyelések és előrejelzések megtekintéséhez.

A térkép megváltoztatása: kattintson a fekete keresztel jelölt zöld gombra ráközelítéshez, a vonallal jelölt zöld gombra távolításhoz, vagy a zöld nyilakra a szomszédos térképek eléréséhez.


METAR-TAF: